Time;durP1;ratioP1;P1;durP2;ratioP2;P2;SDS_P1;SDS_P2;PMS_P1;PMS_P2;Temp;Humidity;BMP_temperature;BMP_pressure;BME280_temperature;BME280_humidity;BME280_pressure;Samples;Min_cycle;Max_cycle;Signal;HPM_P1;HPM_P2
2022/10/14 00:00:37;;;;;;;1.70;1.60;;;;;;;14.31;77.26;99939.19;5071330;28;20203;-72
2022/10/14 00:03:04;;;;;;;1.70;1.60;;;;;;;14.26;77.30;99941.66;5052210;28;20640;-72
2022/10/14 00:05:30;;;;;;;3.07;1.67;;;;;;;14.33;77.08;99934.44;5051820;28;20203;-73
2022/10/14 00:07:57;;;;;;;2.33;2.10;;;;;;;14.35;77.49;99940.44;5052257;28;20246;-73
2022/10/14 00:10:24;;;;;;;1.87;1.60;;;;;;;14.42;77.00;99929.72;5052103;28;20278;-73
2022/10/14 00:12:51;;;;;;;1.97;1.87;;;;;;;14.32;77.36;99937.34;5053003;28;20188;-73
2022/10/14 00:15:19;;;;;;;3.37;1.77;;;;;;;14.34;77.53;99933.41;5052169;28;20207;-74
2022/10/14 00:17:46;;;;;;;4.07;1.60;;;;;;;14.38;77.46;99923.94;5052147;28;20192;-72
2022/10/14 00:20:12;;;;;;;2.97;1.90;;;;;;;14.42;77.02;99924.38;5052425;28;20640;-72
2022/10/14 00:22:39;;;;;;;2.47;1.70;;;;;;;14.44;77.02;99923.13;5052324;28;20188;-72
2022/10/14 00:25:06;;;;;;;2.93;1.67;;;;;;;14.44;76.76;99923.13;5056588;28;20328;-72
2022/10/14 00:27:33;;;;;;;5.17;1.63;;;;;;;14.49;77.16;99925.16;5071431;28;20188;-72
2022/10/14 00:29:59;;;;;;;1.60;1.50;;;;;;;14.41;77.14;99918.19;5071940;28;20622;-72
2022/10/14 00:32:27;;;;;;;1.90;1.60;;;;;;;14.09;78.20;99919.06;5072061;28;20192;-72
2022/10/14 00:34:54;;;;;;;3.60;1.60;;;;;;;14.18;77.98;99922.34;5072626;28;20241;-73
2022/10/14 00:37:21;;;;;;;2.00;1.77;;;;;;;14.25;78.10;99932.00;5076015;28;20203;-72
2022/10/14 00:39:47;;;;;;;2.93;1.80;;;;;;;14.21;78.49;99922.75;5076286;28;20252;-72
2022/10/14 00:42:15;;;;;;;2.30;1.60;;;;;;;14.31;77.69;99919.66;5075583;28;20245;-72
2022/10/14 00:45:13;;;;;;;2.53;1.67;;;;;;;14.43;77.78;99921.50;5076731;28;20220;-72
2022/10/14 00:47:43;;;;;;;3.43;1.40;;;;;;;14.43;77.11;99926.84;5041600;28;20283;-71
2022/10/14 00:50:12;;;;;;;1.63;1.43;;;;;;;14.49;76.66;99920.63;5076758;28;20196;-72
2022/10/14 00:52:39;;;;;;;4.87;1.67;;;;;;;14.44;76.82;99908.94;5075775;28;20286;-71
2022/10/14 00:55:11;;;;;;;2.40;1.37;;;;;;;14.36;77.19;99923.34;5076116;28;20196;-71
2022/10/14 00:57:38;;;;;;;4.40;1.60;;;;;;;14.47;76.63;99920.03;5075446;28;20597;-72
2022/10/14 01:00:08;;;;;;;2.70;1.50;;;;;;;14.50;76.84;99924.16;5075403;28;20195;-72
2022/10/14 01:02:36;;;;;;;1.50;1.40;;;;;;;14.53;76.68;99921.84;5058365;28;20656;-72
2022/10/14 01:05:06;;;;;;;1.77;1.67;;;;;;;14.60;76.64;99921.84;5055101;28;20278;-72
2022/10/14 01:07:43;;;;;;;1.40;1.30;;;;;;;14.63;76.08;99922.22;5055545;28;20634;-72
2022/10/14 01:10:16;;;;;;;1.83;1.50;;;;;;;14.63;76.07;99926.75;5055019;28;20662;-72
2022/10/14 01:12:55;;;;;;;3.53;1.70;;;;;;;14.65;76.06;99924.69;5055471;28;20247;-72
2022/10/14 01:15:32;;;;;;;2.77;1.40;;;;;;;14.65;75.99;99919.34;5056049;28;20601;-72
2022/10/14 01:18:09;;;;;;;3.27;1.30;;;;;;;14.70;76.03;99919.56;5055475;28;20185;-72
2022/10/14 01:21:06;;;;;;;4.80;1.70;;;;;;;14.66;75.89;99919.13;5055687;28;20184;-72
2022/10/14 01:24:09;;;;;;;3.17;1.17;;;;;;;14.73;75.68;99917.25;5055832;28;20235;-72
2022/10/14 01:26:53;;;;;;;1.63;1.50;;;;;;;14.76;75.92;99906.16;5049210;28;20257;-72
2022/10/14 01:29:58;;;;;;;1.67;1.40;;;;;;;14.82;75.70;99910.63;5074938;28;20643;-72
2022/10/14 01:32:29;;;;;;;3.97;1.23;;;;;;;14.83;75.13;99909.59;4993470;28;20268;-72
2022/10/14 01:35:06;;;;;;;4.57;1.57;;;;;;;14.84;75.26;99908.59;4993655;28;20187;-72
2022/10/14 01:37:36;;;;;;;1.50;1.40;;;;;;;14.53;75.80;99905.81;5037103;28;20191;-72
2022/10/14 01:40:07;;;;;;;2.80;1.50;;;;;;;14.50;76.65;99900.88;5074616;28;20241;-72
2022/10/14 01:42:40;;;;;;;3.20;1.57;;;;;;;14.58;76.61;99897.97;5074646;28;20625;-71
2022/10/14 01:45:12;;;;;;;1.53;1.43;;;;;;;14.58;76.94;99891.81;5075333;28;20208;-72
2022/10/14 01:47:42;;;;;;;2.23;1.33;;;;;;;14.38;77.64;99896.41;5073602;28;20192;-71
2022/10/14 01:50:13;;;;;;;2.47;1.70;;;;;;;14.37;77.73;99884.91;5074523;28;20249;-72
2022/10/14 01:52:47;;;;;;;1.67;1.40;;;;;;;14.48;77.83;99892.28;5074697;28;20237;-71
2022/10/14 01:55:17;;;;;;;1.90;1.80;;;;;;;14.56;77.47;99884.00;5074677;28;20184;-71
2022/10/14 01:57:46;;;;;;;1.83;1.40;;;;;;;14.56;77.58;99878.66;5074216;28;20242;-71
2022/10/14 02:00:13;;;;;;;1.47;1.37;;;;;;;14.59;77.24;99888.91;5074589;28;20188;-71
2022/10/14 02:02:41;;;;;;;2.53;1.20;;;;;;;14.62;77.14;99883.16;5074371;28;20196;-71
2022/10/14 02:05:15;;;;;;;3.13;1.77;;;;;;;14.66;77.13;99889.72;5074293;28;20228;-71
2022/10/14 02:07:44;;;;;;;2.73;1.63;;;;;;;14.71;76.95;99884.56;5074455;28;20188;-71
2022/10/14 02:10:26;;;;;;;4.13;1.67;;;;;;;14.67;77.19;99883.34;5074290;28;20188;-72
2022/10/14 02:13:07;;;;;;;2.10;2.00;;;;;;;14.68;77.91;99882.31;5074074;28;20261;-72
2022/10/14 02:15:42;;;;;;;2.03;1.43;;;;;;;14.70;77.39;99880.25;5074396;28;20237;-72
2022/10/14 02:18:18;;;;;;;2.60;1.50;;;;;;;14.69;77.74;99880.44;5073917;28;20253;-72
2022/10/14 02:20:57;;;;;;;3.80;1.63;;;;;;;14.75;77.30;99877.75;5074539;28;20184;-72
2022/10/14 02:23:28;;;;;;;3.03;1.77;;;;;;;14.48;78.04;99870.88;5074024;28;20277;-72
2022/10/14 02:25:55;;;;;;;4.87;2.20;;;;;;;14.37;78.89;99873.38;5074134;28;20541;-71
2022/10/14 02:28:27;;;;;;;2.50;1.80;;;;;;;14.43;79.07;99878.72;5073997;28;20242;-72
2022/10/14 02:30:57;;;;;;;5.80;1.73;;;;;;;14.56;78.21;99862.63;5073782;28;20254;-72
2022/10/14 02:33:32;;;;;;;1.67;1.40;;;;;;;14.67;78.48;99864.63;5073992;28;20217;-72
2022/10/14 02:36:00;;;;;;;2.30;1.50;;;;;;;14.78;77.94;99866.63;5073875;28;20187;-72
2022/10/14 02:38:29;;;;;;;3.00;1.93;;;;;;;14.85;77.37;99872.78;5073522;28;20191;-72
2022/10/14 02:40:56;;;;;;;4.30;2.07;;;;;;;14.93;77.21;99877.88;5074082;28;20241;-70
2022/10/14 02:43:23;;;;;;;1.53;1.43;;;;;;;14.99;77.04;99874.31;5073251;28;20188;-71
2022/10/14 02:45:56;;;;;;;3.27;1.87;;;;;;;14.93;76.34;99856.47;5073562;28;20273;-71
2022/10/14 02:48:23;;;;;;;3.50;1.40;;;;;;;15.11;76.88;99871.81;5073319;28;20664;-71
2022/10/14 02:50:51;;;;;;;3.87;1.77;;;;;;;15.16;76.18;99870.09;5073600;28;20195;-72
2022/10/14 02:53:18;;;;;;;2.73;1.43;;;;;;;15.19;76.23;99874.19;5073165;28;20196;-71
2022/10/14 02:55:44;;;;;;;4.60;1.80;;;;;;;15.22;75.98;99874.59;5073212;28;20192;-72
2022/10/14 02:58:11;;;;;;;1.90;1.80;;;;;;;15.26;76.04;99869.63;5073217;28;20697;-73
2022/10/14 03:00:38;;;;;;;7.23;1.73;;;;;;;15.30;75.80;99871.66;5072981;28;20221;-73
2022/10/14 03:03:05;;;;;;;6.20;1.90;;;;;;;15.32;75.19;99869.56;5073228;28;20257;-72
2022/10/14 03:05:31;;;;;;;6.00;2.30;;;;;;;15.35;75.46;99877.19;5072855;28;20574;-72
2022/10/14 03:07:59;;;;;;;6.13;5.40;;;;;;;15.37;75.18;99864.44;5073101;28;20196;-72
2022/10/14 03:10:26;;;;;;;21.43;14.40;;;;;;;15.40;74.74;99869.34;5073224;28;20305;-73
2022/10/14 03:12:53;;;;;;;6.40;5.50;;;;;;;15.41;74.79;99865.63;5072705;28;20238;-72
2022/10/14 03:15:19;;;;;;;2.57;2.00;;;;;;;15.43;74.90;99868.91;5073063;28;20203;-71
2022/10/14 03:17:46;;;;;;;5.37;2.13;;;;;;;15.45;75.00;99864.13;5072569;28;20203;-72
2022/10/14 03:20:13;;;;;;;3.17;2.23;;;;;;;15.47;74.47;99855.91;5072948;28;20196;-72
2022/10/14 03:22:39;;;;;;;4.90;2.23;;;;;;;15.48;74.61;99850.31;5072540;28;20253;-71
2022/10/14 03:25:09;;;;;;;9.17;2.43;;;;;;;15.51;74.48;99855.25;5072464;28;20216;-71
2022/10/14 03:27:35;;;;;;;3.30;2.17;;;;;;;15.48;74.55;99842.28;5073145;28;20199;-71
2022/10/14 03:30:02;;;;;;;5.03;2.20;;;;;;;15.53;74.74;99855.03;5072733;28;20199;-71
2022/10/14 03:32:29;;;;;;;8.37;2.30;;;;;;;15.52;74.75;99851.53;5072548;28;20199;-72
2022/10/14 03:34:56;;;;;;;3.33;1.73;;;;;;;15.52;74.67;99854.19;5072573;28;20192;-72
2022/10/14 03:37:23;;;;;;;5.33;1.67;;;;;;;15.50;nan;99840.22;5072248;28;20195;-72
2022/10/14 03:39:50;;;;;;;3.97;2.27;;;;;;;15.51;74.27;99841.88;5072540;28;20200;-72
2022/10/14 03:42:18;;;;;;;5.07;1.70;;;;;;;15.50;74.63;99839.41;5072655;28;20657;-72
2022/10/14 03:44:45;;;;;;;6.10;1.97;;;;;;;15.49;74.82;99837.78;5072077;28;20228;-72
2022/10/14 03:47:11;;;;;;;4.50;2.37;;;;;;;15.48;75.19;99836.94;5072133;28;20192;-73
2022/10/14 03:49:38;;;;;;;4.57;2.40;;;;;;;15.45;75.31;99828.53;5072070;28;20192;-73
2022/10/14 03:52:05;;;;;;;7.50;2.43;;;;;;;15.44;74.76;99838.41;5072263;28;20249;-70
2022/10/14 03:54:31;;;;;;;5.27;1.97;;;;;;;15.42;74.69;99835.16;5071970;28;20229;-71
2022/10/14 03:56:58;;;;;;;5.10;2.43;;;;;;;15.41;75.02;99835.38;5072370;28;20188;-71
2022/10/14 03:59:26;;;;;;;3.27;2.30;;;;;;;15.37;75.16;99837.66;5071883;28;20192;-71
2022/10/14 04:01:53;;;;;;;9.67;2.90;;;;;;;15.37;75.27;99840.34;5061308;28;20193;-72
2022/10/14 04:04:20;;;;;;;3.30;2.23;;;;;;;15.35;75.83;99826.34;5052075;28;20228;-72
2022/10/14 04:06:46;;;;;;;9.37;2.60;;;;;;;15.30;75.83;99834.19;5052687;28;20246;-72
2022/10/14 04:09:13;;;;;;;7.10;2.63;;;;;;;15.27;76.46;99828.44;5051369;28;20196;-72
2022/10/14 04:11:40;;;;;;;13.67;4.07;;;;;;;15.24;76.23;99839.59;5051765;28;20232;-72
2022/10/14 04:14:07;;;;;;;26.80;4.10;;;;;;;15.18;76.72;99835.09;5051746;28;20258;-72
2022/10/14 04:16:35;;;;;;;8.37;3.33;;;;;;;15.09;77.32;99837.22;5052721;28;20192;-73
2022/10/14 04:19:01;;;;;;;5.97;3.20;;;;;;;15.04;76.82;99833.56;5054494;28;20258;-72
2022/10/14 04:21:28;;;;;;;10.17;3.57;;;;;;;15.02;76.84;99832.94;5052069;28;20188;-72
2022/10/14 04:23:55;;;;;;;6.53;3.47;;;;;;;15.01;76.59;99829.47;5051428;28;20254;-72
2022/10/14 04:26:21;;;;;;;5.37;3.47;;;;;;;14.98;76.51;99834.41;5067221;28;20196;-72
2022/10/14 04:28:48;;;;;;;14.23;4.07;;;;;;;14.95;76.50;99830.31;5071583;28;20555;-72
2022/10/14 04:31:15;;;;;;;12.37;4.17;;;;;;;14.96;76.06;99837.28;5071818;28;20195;-72
2022/10/14 04:33:43;;;;;;;16.53;4.13;;;;;;;14.96;75.79;99836.50;5071946;28;20196;-72
2022/10/14 04:36:10;;;;;;;13.00;4.97;;;;;;;14.97;75.28;99833.59;5071534;28;20683;-72
2022/10/14 04:38:36;;;;;;;28.53;5.90;;;;;;;14.90;75.72;99827.47;5071436;28;20195;-72
2022/10/14 04:41:03;;;;;;;18.50;6.33;;;;;;;14.91;76.07;99834.44;5069409;28;20184;-71
2022/10/14 04:43:30;;;;;;;12.37;5.70;;;;;;;14.95;75.61;99827.63;5062297;28;20260;-71
2022/10/14 04:45:56;;;;;;;24.97;5.90;;;;;;;14.97;75.34;99828.25;5072251;28;20223;-72
2022/10/14 04:48:23;;;;;;;19.50;5.60;;;;;;;15.00;75.18;99838.50;5070777;28;20635;-72
2022/10/14 04:50:53;;;;;;;15.20;6.50;;;;;;;15.05;75.12;99844.03;5072511;28;20195;-73
2022/10/14 04:53:20;;;;;;;19.47;6.77;;;;;;;15.05;74.56;99835.19;5068342;28;20229;-71
2022/10/14 04:55:48;;;;;;;38.53;8.23;;;;;;;15.08;74.84;99835.56;5058234;28;20676;-71
2022/10/14 04:58:15;;;;;;;25.23;7.27;;;;;;;15.11;74.76;99839.69;5061156;28;20278;-71
2022/10/14 05:00:42;;;;;;;36.83;8.10;;;;;;;15.13;74.99;99842.97;5071212;28;20242;-70
2022/10/14 05:03:09;;;;;;;24.33;7.50;;;;;;;15.17;74.85;99839.63;5071184;28;20196;-70
2022/10/14 05:05:36;;;;;;;33.50;8.17;;;;;;;15.16;75.29;99842.53;5071416;28;20223;-71
2022/10/14 05:08:04;;;;;;;33.53;8.20;;;;;;;15.19;75.12;99837.56;5068020;28;20189;-72
2022/10/14 05:10:31;;;;;;;27.87;6.97;;;;;;;15.17;75.35;99836.97;5068112;28;20235;-74
2022/10/14 05:12:58;;;;;;;30.60;7.80;;;;;;;15.23;75.13;99836.09;5071571;28;20192;-74
2022/10/14 05:15:25;;;;;;;32.83;7.27;;;;;;;15.30;75.32;99834.19;5070889;28;20285;-74
2022/10/14 05:17:51;;;;;;;30.97;8.00;;;;;;;15.37;75.11;99826.97;5056757;28;20298;-72
2022/10/14 05:20:18;;;;;;;34.70;7.13;;;;;;;15.43;74.96;99828.75;5052024;28;20191;-72
2022/10/14 05:22:45;;;;;;;62.80;10.23;;;;;;;15.51;74.95;99836.50;5058721;28;20208;-74
2022/10/14 05:25:14;;;;;;;39.10;7.63;;;;;;;15.66;74.29;99834.31;5067058;28;20288;-76
2022/10/14 05:27:40;;;;;;;17.37;5.80;;;;;;;15.75;73.38;99833.00;5074710;28;20251;-73
2022/10/14 05:30:08;;;;;;;20.17;4.87;;;;;;;15.85;72.57;99833.28;5068695;28;20208;-74
2022/10/14 05:32:35;;;;;;;22.57;5.83;;;;;;;15.93;72.40;99839.41;5065366;28;20262;-73
2022/10/14 05:35:02;;;;;;;38.80;8.83;;;;;;;16.01;72.37;99836.44;5057433;28;20197;-78
2022/10/14 05:37:29;;;;;;;14.20;4.43;;;;;;;16.19;72.26;99847.16;5062754;28;20196;-78
2022/10/14 05:39:56;;;;;;;16.23;4.97;;;;;;;16.32;71.51;99844.31;5074867;28;20199;-82
2022/10/14 05:42:24;;;;;;;19.27;4.60;;;;;;;16.40;70.35;99838.66;5074212;28;20250;-79
2022/10/14 05:44:51;;;;;;;16.33;4.77;;;;;;;16.53;70.37;99844.72;5074428;28;20313;-76
2022/10/14 05:47:18;;;;;;;36.63;4.20;;;;;;;16.64;69.84;99840.44;5074842;28;20196;-76
2022/10/14 05:49:45;;;;;;;4.97;4.10;;;;;;;16.83;69.54;99842.06;5074780;28;20673;-78
2022/10/14 05:52:11;;;;;;;9.67;3.70;;;;;;;16.90;68.76;99834.75;5073141;28;20261;-77
2022/10/14 05:54:38;;;;;;;8.00;4.10;;;;;;;17.07;69.21;99841.09;5065929;28;20202;-77
2022/10/14 05:57:05;;;;;;;10.80;3.87;;;;;;;17.33;68.58;99843.38;5054674;28;20625;-80
2022/10/14 05:59:34;;;;;;;9.57;4.13;;;;;;;17.67;67.82;99847.97;5069293;28;20202;-78
2022/10/14 06:02:00;;;;;;;9.97;4.20;;;;;;;17.87;65.90;99860.03;5074121;28;20405;-84
2022/10/14 06:04:27;;;;;;;6.30;3.47;;;;;;;17.99;66.29;99854.66;5075158;28;20254;-73
2022/10/14 06:06:54;;;;;;;5.20;2.67;;;;;;;18.13;64.47;99864.13;5073870;28;20192;-75
2022/10/14 06:09:21;;;;;;;3.63;2.17;;;;;;;18.22;64.63;99865.38;5074111;28;20196;-76
2022/10/14 06:11:48;;;;;;;4.20;2.73;;;;;;;18.31;65.05;99856.72;5074363;28;20227;-75
2022/10/14 06:14:14;;;;;;;8.57;2.60;;;;;;;18.51;64.07;99864.44;5074197;28;20279;-67
2022/10/14 06:16:43;;;;;;;4.27;2.00;;;;;;;18.66;63.03;99870.13;5073943;28;20269;-68
2022/10/14 06:19:09;;;;;;;18.87;8.57;;;;;;;18.76;63.17;99867.63;5070666;28;20194;-69
2022/10/14 06:21:36;;;;;;;6.33;3.73;;;;;;;18.77;63.04;99863.88;5073551;28;20730;-67
2022/10/14 06:24:03;;;;;;;49.87;24.37;;;;;;;19.26;69.23;99841.66;5072336;28;20235;-61
2022/10/14 06:26:30;;;;;;;6.90;2.07;;;;;;;19.68;62.26;99867.13;5058902;28;20220;-66
2022/10/14 06:28:57;;;;;;;11.67;2.70;;;;;;;19.83;59.95;99873.59;5062773;28;20553;-67
2022/10/14 06:31:23;;;;;;;11.50;3.03;;;;;;;19.76;58.46;99869.41;5053334;28;20198;-67
2022/10/14 06:33:52;;;;;;;5.77;2.10;;;;;;;19.60;59.04;99876.44;5060532;28;20251;-66
2022/10/14 06:36:18;;;;;;;5.40;2.77;;;;;;;19.57;59.79;99873.44;5053478;28;20207;-66
2022/10/14 06:38:45;;;;;;;3.07;1.80;;;;;;;19.47;60.05;99870.56;5053093;28;20734;-65
2022/10/14 06:41:12;;;;;;;10.40;1.97;;;;;;;19.53;59.55;99886.56;5053358;28;20246;-64
2022/10/14 06:43:38;;;;;;;4.50;1.63;;;;;;;19.54;59.46;99888.22;5053199;28;20193;-64
2022/10/14 06:46:05;;;;;;;5.87;4.23;;;;;;;19.61;59.57;99883.47;5053038;28;20285;-65
2022/10/14 06:48:32;;;;;;;5.13;2.13;;;;;;;19.60;59.18;99881.84;5064793;28;20530;-65
2022/10/14 06:51:01;;;;;;;7.87;2.70;;;;;;;19.67;58.67;99881.69;5052286;28;20204;-65
2022/10/14 06:53:28;;;;;;;22.50;4.17;;;;;;;19.71;59.00;99883.66;5051567;28;20200;-65
2022/10/14 06:56:00;;;;;;;9.23;1.80;;;;;;;19.71;58.20;99882.81;5052895;28;20270;-64
2022/10/14 06:58:27;;;;;;;11.10;2.63;;;;;;;19.66;58.58;99885.44;5057301;28;20203;-65
2022/10/14 07:00:53;;;;;;;3.77;1.70;;;;;;;19.22;59.27;99886.25;5057666;28;20193;-65
2022/10/14 07:03:20;;;;;;;4.93;3.27;;;;;;;18.96;61.19;99881.47;5053022;28;20196;-64
2022/10/14 07:05:47;;;;;;;6.57;4.57;;;;;;;19.12;62.71;99888.78;5052479;28;20637;-67
2022/10/14 07:08:15;;;;;;;2.83;1.10;;;;;;;19.33;60.22;99882.72;5053087;28;20375;-68
2022/10/14 07:10:42;;;;;;;1.27;1.23;;;;;;;19.52;59.82;99878.75;5053650;28;20232;-72
2022/10/14 07:13:08;;;;;;;2.70;1.77;;;;;;;19.62;59.05;99882.44;5052506;28;20196;-68
2022/10/14 07:15:37;;;;;;;3.63;1.27;;;;;;;19.77;58.87;99884.56;5053354;28;20248;-66
2022/10/14 07:18:04;;;;;;;3.67;1.97;;;;;;;19.74;57.95;99887.72;5052456;28;20671;-65
2022/10/14 07:20:31;;;;;;;5.90;1.80;;;;;;;19.75;58.59;99883.97;5052284;28;20262;-67
2022/10/14 07:22:58;;;;;;;5.30;1.87;;;;;;;19.51;58.67;99891.41;5052805;28;20203;-66
2022/10/14 07:25:26;;;;;;;3.97;1.50;;;;;;;19.34;59.51;99887.88;5057689;28;20665;-66
2022/10/14 07:27:53;;;;;;;2.83;1.57;;;;;;;19.44;59.58;99876.47;5051749;28;20622;-66
2022/10/14 07:30:20;;;;;;;7.43;2.40;;;;;;;19.47;59.45;99871.38;5071850;28;20251;-66
2022/10/14 07:32:47;;;;;;;4.60;2.23;;;;;;;19.56;59.71;99871.81;5070717;28;20628;-68
2022/10/14 07:35:13;;;;;;;3.73;2.47;;;;;;;19.54;58.77;99882.00;5055928;28;20199;-66
2022/10/14 07:37:40;;;;;;;2.47;2.30;;;;;;;19.57;59.51;99870.75;5052114;28;20684;-68
2022/10/14 07:40:08;;;;;;;3.50;2.13;;;;;;;19.62;59.14;99874.34;5052481;28;20203;-67
2022/10/14 07:42:36;;;;;;;8.80;5.40;;;;;;;19.76;61.71;99861.31;5052554;28;20197;-68
2022/10/14 07:45:04;;;;;;;6.50;3.10;;;;;;;20.02;59.60;99868.75;5050277;28;20685;-67
2022/10/14 07:47:32;;;;;;;7.00;3.97;;;;;;;20.34;61.04;99856.28;5062049;28;20199;-66
2022/10/14 07:49:59;;;;;;;5.83;3.13;;;;;;;20.62;57.29;99866.88;5070163;28;20664;-66
2022/10/14 07:52:26;;;;;;;12.00;3.57;;;;;;;20.83;58.55;99876.88;5070536;28;20195;-69
2022/10/14 07:54:53;;;;;;;8.53;2.93;;;;;;;21.11;58.14;99870.44;5069032;28;20187;-67
2022/10/14 07:57:22;;;;;;;4.40;1.77;;;;;;;21.24;54.39;99876.25;5070742;28;20200;-69
2022/10/14 07:59:51;;;;;;;2.90;1.60;;;;;;;21.14;54.04;99873.44;5069445;28;20196;-67
2022/10/14 08:02:18;;;;;;;7.00;2.10;;;;;;;21.00;54.77;99874.94;5052808;28;20250;-68
2022/10/14 08:04:45;;;;;;;9.40;2.20;;;;;;;20.94;54.77;99872.44;5052101;28;20221;-67
2022/10/14 08:07:13;;;;;;;13.87;2.10;;;;;;;20.81;54.77;99868.19;5051895;28;20224;-67
2022/10/14 08:09:40;;;;;;;7.03;1.67;;;;;;;20.73;55.40;99865.94;5051816;28;20205;-66
2022/10/14 08:12:07;;;;;;;4.23;1.40;;;;;;;20.73;55.57;99863.22;5052195;28;20232;-66
2022/10/14 08:14:34;;;;;;;6.13;1.50;;;;;;;20.51;55.71;99865.94;5052160;28;20287;-66
2022/10/14 08:17:02;;;;;;;6.97;1.40;;;;;;;20.36;55.97;99860.38;5051518;28;20723;-67
2022/10/14 08:19:29;;;;;;;1.63;1.47;;;;;;;20.17;56.60;99869.81;5051456;28;20204;-67
2022/10/14 08:21:56;;;;;;;39.23;11.03;;;;;;;20.28;61.66;99849.19;5050646;28;20200;-60
2022/10/14 08:24:22;;;;;;;16.13;6.43;;;;;;;20.58;60.02;99856.84;5049545;28;20626;-60
2022/10/14 08:26:51;;;;;;;18.60;6.70;;;;;;;20.86;57.14;99870.94;5073178;28;20216;-64
2022/10/14 08:29:18;;;;;;;4.33;2.70;;;;;;;21.25;55.78;99861.66;5065212;28;20576;-62
2022/10/14 08:31:45;;;;;;;15.63;4.67;;;;;;;21.34;54.08;99865.53;5066679;28;20199;-60
2022/10/14 08:34:13;;;;;;;5.03;3.13;;;;;;;21.64;55.15;99865.78;5055891;28;20188;-62
2022/10/14 08:36:40;;;;;;;6.60;2.50;;;;;;;21.88;52.48;99869.78;5061005;28;20265;-62
2022/10/14 08:39:07;;;;;;;5.20;2.20;;;;;;;22.00;52.91;99872.28;5064249;28;20660;-61
2022/10/14 08:41:56;;;;;;;1.57;1.43;;;;;;;22.16;51.57;99869.44;5060083;28;20196;-66
2022/10/14 08:44:27;;;;;;;4.07;2.07;;;;;;;22.08;52.05;99861.81;5021914;28;20303;-61
2022/10/14 08:46:56;;;;;;;4.43;1.20;;;;;;;21.68;52.31;99864.19;5046215;28;20209;-60
2022/10/14 08:49:29;;;;;;;6.37;1.73;;;;;;;22.21;54.61;99858.63;5071051;28;20660;-61
2022/10/14 08:52:01;;;;;;;14.43;2.33;;;;;;;22.66;52.98;99867.00;5071214;28;20188;-61
2022/10/14 08:54:36;;;;;;;3.23;1.40;;;;;;;23.17;48.80;99874.19;5071139;28;20211;-60
2022/10/14 08:57:04;;;;;;;3.23;1.40;;;;;;;23.51;47.63;99875.34;5073003;28;20231;-63
2022/10/14 08:59:37;;;;;;;6.27;1.73;;;;;;;23.78;48.79;99867.75;5068111;28;20196;-65
2022/10/14 09:02:14;;;;;;;4.00;1.70;;;;;;;24.14;47.10;99865.84;5048005;28;20670;-63
2022/10/14 09:04:42;;;;;;;1.47;1.37;;;;;;;24.45;45.55;99860.03;5048786;28;20311;-62
2022/10/14 09:07:16;;;;;;;5.47;1.00;;;;;;;24.57;44.51;99860.53;5046507;28;20280;-61
2022/10/14 09:09:45;;;;;;;6.30;1.43;;;;;;;24.69;44.30;99858.34;5047405;28;20197;-65
2022/10/14 09:12:16;;;;;;;1.13;1.03;;;;;;;24.80;43.67;99854.44;5048834;28;20612;-64
2022/10/14 09:14:47;;;;;;;2.70;1.20;;;;;;;24.83;43.17;99853.91;5053564;28;20272;-62
2022/10/14 09:17:19;;;;;;;3.90;1.10;;;;;;;24.91;43.26;99868.84;5073350;28;20207;-63
2022/10/14 09:19:51;;;;;;;2.80;1.20;;;;;;;24.75;42.77;99865.34;5070536;28;20192;-61
2022/10/14 09:22:18;;;;;;;1.50;1.17;;;;;;;24.74;43.12;99850.16;5068193;28;20205;-61
2022/10/14 09:24:47;;;;;;;2.60;1.40;;;;;;;24.80;43.47;99843.59;5068029;28;20548;-64
2022/10/14 09:27:16;;;;;;;4.40;1.70;;;;;;;24.78;43.16;99843.06;5060782;28;20228;-63
2022/10/14 09:29:47;;;;;;;4.20;1.50;;;;;;;24.86;43.40;99838.94;5063258;28;20203;-63
2022/10/14 09:32:20;;;;;;;1.40;1.30;;;;;;;24.74;42.86;99846.59;5067882;28;20191;-61
2022/10/14 09:34:50;;;;;;;7.43;1.50;;;;;;;24.49;43.87;99846.69;5058076;28;20620;-62
2022/10/14 09:37:28;;;;;;;1.70;1.03;;;;;;;24.21;43.76;99841.91;5048418;28;20190;-61
2022/10/14 09:39:59;;;;;;;2.37;1.50;;;;;;;24.01;43.38;99845.47;5051775;28;20191;-61
2022/10/14 09:42:32;;;;;;;8.73;1.93;;;;;;;23.83;45.20;99837.91;5067993;28;20714;-60
2022/10/14 09:45:12;;;;;;;11.43;2.13;;;;;;;24.01;45.23;99825.69;5071244;28;20243;-61
2022/10/14 09:47:46;;;;;;;7.27;1.37;;;;;;;24.00;43.16;99827.59;5083290;28;20622;-61
2022/10/14 09:50:24;;;;;;;6.83;1.70;;;;;;;24.10;44.03;99824.81;5078644;28;20189;-62
2022/10/14 09:52:54;;;;;;;3.13;1.30;;;;;;;24.18;42.78;99824.25;5077582;28;20240;-64
2022/10/14 09:55:24;;;;;;;4.00;1.20;;;;;;;24.23;43.51;99821.56;5078126;28;20198;-64
2022/10/14 09:58:02;;;;;;;2.40;1.17;;;;;;;24.33;42.13;99818.78;5073342;28;20617;-62
2022/10/14 10:00:31;;;;;;;2.17;1.20;;;;;;;24.24;42.46;99825.88;5073596;28;20271;-62
2022/10/14 10:02:58;;;;;;;1.70;1.30;;;;;;;24.13;41.71;99821.56;5073397;28;20623;-61
2022/10/14 10:05:28;;;;;;;7.73;1.77;;;;;;;23.99;42.71;99831.38;5073388;28;20251;-61
2022/10/14 10:08:04;;;;;;;2.50;1.20;;;;;;;24.08;42.89;99821.59;5073325;28;20220;-62
2022/10/14 10:10:33;;;;;;;3.13;1.30;;;;;;;24.19;42.04;99827.81;5073729;28;20327;-62
2022/10/14 10:13:01;;;;;;;1.20;1.10;;;;;;;23.97;40.31;99819.97;5073797;28;20661;-61
2022/10/14 10:15:27;;;;;;;1.07;1.07;;;;;;;23.64;41.07;99820.53;5074645;28;20201;-62
2022/10/14 10:17:54;;;;;;;1.40;1.20;;;;;;;23.66;41.22;99817.56;5074604;28;20200;-62
2022/10/14 10:20:30;;;;;;;36.17;3.90;;;;;;;23.75;41.17;99811.31;5074289;28;20210;-61
2022/10/14 10:23:16;;;;;;;9.27;1.60;;;;;;;23.74;41.13;99815.13;5073894;28;20189;-62
2022/10/14 10:25:42;;;;;;;3.93;0.97;;;;;;;23.85;40.86;99811.28;5073351;28;20182;-62
2022/10/14 10:28:18;;;;;;;1.50;0.83;;;;;;;23.97;40.56;99809.13;5057453;28;20547;-62
2022/10/14 10:30:59;;;;;;;3.17;1.20;;;;;;;24.13;41.24;99804.47;5054042;28;20195;-62
2022/10/14 10:33:32;;;;;;;1.30;1.17;;;;;;;24.18;39.87;99802.53;5053552;28;20187;-63
2022/10/14 10:36:16;;;;;;;1.20;1.10;;;;;;;24.22;40.61;99787.31;5053639;28;20628;-62
2022/10/14 10:38:56;;;;;;;3.70;1.33;;;;;;;23.92;39.63;99792.84;5053375;28;20199;-66
2022/10/14 10:41:39;;;;;;;1.43;1.20;;;;;;;23.88;40.79;99780.91;5054145;28;20276;-66
2022/10/14 10:44:34;;;;;;;12.03;2.30;;;;;;;23.95;39.38;99783.34;5053219;28;20190;-68
2022/10/14 10:47:16;;;;;;;1.30;1.20;;;;;;;23.83;38.97;99774.66;5053502;28;20213;-67
2022/10/14 10:50:03;;;;;;;7.37;1.43;;;;;;;23.17;40.11;99781.22;5053263;28;20201;-68
2022/10/14 10:52:42;;;;;;;2.40;0.93;;;;;;;22.79;40.53;99777.09;5071128;28;20188;-67
2022/10/14 10:55:18;;;;;;;1.50;1.00;;;;;;;22.87;40.43;99776.56;5064128;28;20265;-67
2022/10/14 10:57:57;;;;;;;1.77;1.30;;;;;;;22.94;39.75;99765.47;5061406;28;20189;-67
2022/10/14 11:00:24;;;;;;;8.77;1.83;;;;;;;22.72;40.81;99767.59;5064175;28;20201;-68
2022/10/14 11:02:59;;;;;;;2.10;1.17;;;;;;;22.38;42.74;99766.41;5062681;28;20682;-68
2022/10/14 11:05:50;;;;;;;1.87;1.10;;;;;;;22.35;42.92;99756.94;5058103;28;20242;-69
2022/10/14 11:14:37;;;;;;;2.60;0.80;;;;;;;21.85;43.84;99736.97;5053380;28;20227;-67
2022/10/14 11:17:13;;;;;;;1.80;1.10;;;;;;;21.98;43.73;99742.72;5052589;28;20192;-67
2022/10/14 11:19:48;;;;;;;1.70;1.10;;;;;;;21.94;44.16;99738.91;5052629;28;20661;-68
2022/10/14 11:22:27;;;;;;;6.70;1.50;;;;;;;22.04;44.05;99727.28;5053089;28;20250;-68
2022/10/14 11:25:02;;;;;;;1.63;1.53;;;;;;;21.94;44.47;99725.38;5056440;28;20247;-67
2022/10/14 11:27:37;;;;;;;4.13;1.87;;;;;;;21.98;44.28;99726.47;5062299;28;20204;-68
2022/10/14 11:30:15;;;;;;;1.90;1.30;;;;;;;21.83;44.34;99720.16;5052583;28;20196;-69
2022/10/14 11:32:56;;;;;;;5.67;2.13;;;;;;;21.95;43.73;99713.47;5052913;28;20201;-68
2022/10/14 11:35:33;;;;;;;3.90;1.17;;;;;;;21.98;44.04;99712.94;5052874;28;20188;-67
2022/10/14 11:38:15;;;;;;;8.70;1.77;;;;;;;22.09;43.93;99708.41;5052685;28;20193;-67
2022/10/14 11:40:50;;;;;;;4.80;1.17;;;;;;;22.08;43.62;99712.97;5052922;28;20195;-67
2022/10/14 11:43:31;;;;;;;3.77;1.23;;;;;;;22.03;43.16;99699.44;5052270;28;20184;-67
2022/10/14 11:46:01;;;;;;;3.30;1.40;;;;;;;21.89;43.60;99684.75;5052708;28;20211;-66
2022/10/14 11:48:37;;;;;;;6.13;1.50;;;;;;;21.88;43.24;99690.47;5052354;28;20185;-71
2022/10/14 11:51:17;;;;;;;3.17;1.30;;;;;;;21.86;43.05;99685.31;5052247;28;20184;-65